Time;durP1;ratioP1;P1;durP2;ratioP2;P2;SDS_P1;SDS_P2;PMS_P1;PMS_P2;Temp;Humidity;BMP_temperature;BMP_pressure;BME280_temperature;BME280_humidity;BME280_pressure;Samples;Min_cycle;Max_cycle;Signal;HPM_P1;HPM_P2
2022/05/02 00:01:34;;;;;;;18.38;16.83;;;;;;;-141.48;100.00;69781.59;5183576;28;20065;-57
2022/05/02 00:04:05;;;;;;;19.50;17.35;;;;;;;-141.48;100.00;69781.59;5183704;28;20022;-57
2022/05/02 00:06:35;;;;;;;17.73;16.10;;;;;;;-141.48;100.00;69781.59;5199668;28;20052;-57
2022/05/02 00:09:06;;;;;;;17.90;16.27;;;;;;;-141.48;100.00;69781.59;5183408;28;20499;-59
2022/05/02 00:11:36;;;;;;;17.27;15.43;;;;;;;-141.48;100.00;69781.59;5183261;28;20036;-56
2022/05/02 00:14:07;;;;;;;15.38;14.30;;;;;;;-141.48;100.00;69781.59;5166762;28;20525;-58
2022/05/02 00:16:39;;;;;;;17.98;14.98;;;;;;;-141.48;100.00;69781.59;5183180;28;20038;-59
2022/05/02 00:19:09;;;;;;;17.92;16.00;;;;;;;-141.48;100.00;69781.59;5199536;28;20475;-59
2022/05/02 00:21:40;;;;;;;17.88;16.27;;;;;;;-141.48;100.00;69781.59;5199442;28;20021;-58
2022/05/02 00:24:10;;;;;;;17.67;16.05;;;;;;;-141.48;100.00;69781.59;5182827;28;20029;-58
2022/05/02 00:26:41;;;;;;;17.02;15.73;;;;;;;-141.48;100.00;69781.59;5183184;28;20320;-58
2022/05/02 00:29:12;;;;;;;18.48;16.92;;;;;;;-141.48;100.00;69781.59;5182923;28;20036;-58
2022/05/02 00:31:45;;;;;;;18.73;17.08;;;;;;;-141.48;100.00;69781.59;5182893;28;20037;-57
2022/05/02 00:34:16;;;;;;;20.90;18.25;;;;;;;-141.48;100.00;69781.59;5199404;28;20048;-58
2022/05/02 00:36:47;;;;;;;18.85;17.15;;;;;;;-141.48;100.00;69781.59;5199638;28;20134;-55
2022/05/02 00:39:17;;;;;;;19.15;17.40;;;;;;;-141.48;100.00;69781.59;5183139;28;20025;-56
2022/05/02 00:41:47;;;;;;;17.58;15.90;;;;;;;-141.48;100.00;69781.59;5182879;28;20084;-58
2022/05/02 00:44:18;;;;;;;20.30;18.50;;;;;;;-141.48;100.00;69781.59;5183770;28;20022;-57
2022/05/02 00:46:49;;;;;;;22.02;19.50;;;;;;;-141.48;100.00;69781.59;5182969;28;20485;-58
2022/05/02 00:49:20;;;;;;;18.15;16.58;;;;;;;-141.48;100.00;69781.59;5199141;28;20025;-57
2022/05/02 00:51:50;;;;;;;20.73;19.15;;;;;;;-141.48;100.00;69781.59;5199432;28;20068;-57
2022/05/02 00:57:22;;;;;;;18.77;17.13;;;;;;;-141.48;100.00;69781.59;4446728;26;20125;-92
2022/05/02 00:59:53;;;;;;;20.77;18.95;;;;;;;-141.48;100.00;69781.59;5206140;28;20036;-93
2022/05/02 01:02:23;;;;;;;21.38;19.77;;;;;;;-141.48;100.00;69781.59;5208979;28;20030;-92
2022/05/02 01:04:54;;;;;;;21.27;19.38;;;;;;;-141.48;100.00;69781.59;5207568;28;20057;-91
2022/05/02 01:07:24;;;;;;;20.65;18.65;;;;;;;-141.48;100.00;69781.59;5190456;28;20026;-92
2022/05/02 01:09:55;;;;;;;22.00;19.92;;;;;;;-141.48;100.00;69781.59;5209227;28;20040;-91
2022/05/02 01:12:25;;;;;;;20.23;18.38;;;;;;;-141.48;100.00;69781.59;5209055;28;20060;-91
2022/05/02 01:14:57;;;;;;;19.15;17.35;;;;;;;-141.48;100.00;69781.59;5192689;28;20018;-91
2022/05/02 01:17:27;;;;;;;19.90;18.38;;;;;;;-141.48;100.00;69781.59;5213002;28;20098;-90
2022/05/02 01:19:58;;;;;;;22.75;20.83;;;;;;;-141.48;100.00;69781.59;5211479;28;20025;-91
2022/05/02 01:22:28;;;;;;;22.83;20.52;;;;;;;-141.48;100.00;69781.59;5192976;28;20049;-91
2022/05/02 01:25:00;;;;;;;21.25;19.33;;;;;;;-141.48;100.00;69781.59;5210018;28;20081;-90
2022/05/02 01:27:30;;;;;;;21.02;19.35;;;;;;;-141.48;100.00;69781.59;5209447;28;20030;-91
2022/05/02 01:30:00;;;;;;;19.88;18.02;;;;;;;-141.48;100.00;69781.59;5194176;28;20014;-90
2022/05/02 01:32:31;;;;;;;20.58;18.67;;;;;;;-141.48;100.00;69781.59;5194938;28;20033;-92
2022/05/02 01:35:01;;;;;;;18.17;16.58;;;;;;;-141.48;100.00;69781.59;5192146;28;20016;-91
2022/05/02 01:37:32;;;;;;;18.35;16.83;;;;;;;-141.48;100.00;69781.59;5192641;28;20033;-91
2022/05/02 01:40:03;;;;;;;20.65;18.80;;;;;;;-141.48;100.00;69781.59;5208275;28;20029;-93
2022/05/02 01:42:33;;;;;;;19.52;17.77;;;;;;;-141.48;100.00;69781.59;5194817;28;20037;-90
2022/05/02 01:45:04;;;;;;;21.25;19.30;;;;;;;-141.48;100.00;69781.59;5209658;28;20459;-91
2022/05/02 01:47:35;;;;;;;21.50;19.83;;;;;;;-141.48;100.00;69781.59;5209501;28;20009;-90
2022/05/02 01:50:05;;;;;;;22.58;20.52;;;;;;;-141.48;100.00;69781.59;5196583;28;20069;-89
2022/05/02 01:52:36;;;;;;;20.15;18.60;;;;;;;-141.48;100.00;69781.59;5197218;28;20022;-89
2022/05/02 01:55:07;;;;;;;23.08;20.95;;;;;;;-141.48;100.00;69781.59;5213873;28;20064;-90
2022/05/02 01:57:37;;;;;;;22.33;20.30;;;;;;;-141.48;100.00;69781.59;5214122;28;20022;-89
2022/05/02 02:00:08;;;;;;;24.33;21.88;;;;;;;-141.48;100.00;69781.59;5214371;28;20041;-91
2022/05/02 02:02:39;;;;;;;21.80;19.77;;;;;;;-141.48;100.00;69781.59;5212997;28;20026;-90
2022/05/02 02:07:58;;;;;;;23.02;20.92;;;;;;;-141.48;100.00;69781.59;5207456;28;20056;-91
2022/05/02 02:10:28;;;;;;;25.92;22.73;;;;;;;-141.48;100.00;69781.59;5190820;28;20030;-91
2022/05/02 02:12:59;;;;;;;22.40;20.17;;;;;;;-141.48;100.00;69781.59;5208558;28;20049;-91
2022/05/02 02:15:29;;;;;;;23.45;21.45;;;;;;;-141.48;100.00;69781.59;5210154;28;20117;-91
2022/05/02 02:18:00;;;;;;;32.08;23.30;;;;;;;-141.48;100.00;69781.59;5191648;28;20060;-90
2022/05/02 02:20:31;;;;;;;24.65;22.45;;;;;;;-141.48;100.00;69781.59;5208358;28;20022;-91
2022/05/02 02:23:03;;;;;;;23.40;21.38;;;;;;;-141.48;100.00;69781.59;5208506;28;20037;-90
2022/05/02 02:25:33;;;;;;;24.30;21.77;;;;;;;-141.48;100.00;69781.59;5203546;28;20025;-91
2022/05/02 02:28:04;;;;;;;23.55;21.48;;;;;;;-141.48;100.00;69781.59;5188892;28;20025;-90
2022/05/02 02:30:35;;;;;;;24.15;21.55;;;;;;;-141.48;100.00;69781.59;5207911;28;20040;-91
2022/05/02 02:33:05;;;;;;;23.65;21.70;;;;;;;-141.48;100.00;69781.59;5190483;28;20041;-90
2022/05/02 02:35:36;;;;;;;26.42;24.05;;;;;;;-141.48;100.00;69781.59;5205887;28;20037;-92
2022/05/02 02:38:12;;;;;;;27.10;24.60;;;;;;;-141.48;100.00;69781.59;5207978;28;20040;-90
2022/05/02 02:40:43;;;;;;;23.75;21.55;;;;;;;-141.48;100.00;69781.59;5189810;28;20419;-90
2022/05/02 02:43:13;;;;;;;23.45;21.20;;;;;;;-141.48;100.00;69781.59;5190267;28;20025;-89
2022/05/02 02:48:16;;;;;;;28.30;24.35;;;;;;;-141.48;100.00;69781.59;5212970;28;20061;-82
2022/05/02 02:50:47;;;;;;;23.67;21.67;;;;;;;-141.48;100.00;69781.59;5214681;28;20036;-83
2022/05/02 02:53:17;;;;;;;25.15;22.95;;;;;;;-141.48;100.00;69781.59;5216003;28;20034;-80
2022/05/02 02:55:48;;;;;;;24.75;22.55;;;;;;;-141.48;100.00;69781.59;5215867;28;20026;-82
2022/05/02 02:58:18;;;;;;;27.20;25.08;;;;;;;-141.48;100.00;69781.59;5231288;28;20032;-82
2022/05/02 03:00:48;;;;;;;24.63;22.83;;;;;;;-141.48;100.00;69781.59;5214654;28;20021;-81
2022/05/02 03:03:19;;;;;;;27.10;25.08;;;;;;;-141.48;100.00;69781.59;5214454;28;20029;-83
2022/05/02 03:06:01;;;;;;;23.98;21.95;;;;;;;-141.48;100.00;69781.59;5216888;28;20021;-82
2022/05/02 03:08:34;;;;;;;24.65;22.58;;;;;;;-141.48;100.00;69781.59;5216789;28;20029;-82
2022/05/02 03:11:04;;;;;;;28.55;25.98;;;;;;;-141.48;100.00;69781.59;5216765;28;20026;-82
2022/05/02 03:13:35;;;;;;;25.75;23.33;;;;;;;-141.48;100.00;69781.59;5232066;28;20143;-82
2022/05/02 03:16:05;;;;;;;26.70;24.30;;;;;;;-141.48;100.00;69781.59;5214703;28;20414;-82
2022/05/02 03:18:36;;;;;;;25.20;22.90;;;;;;;-141.48;100.00;69781.59;5216025;28;20025;-83
2022/05/02 03:21:06;;;;;;;26.83;24.13;;;;;;;-141.48;100.00;69781.59;5215929;28;20487;-83
2022/05/02 03:23:36;;;;;;;24.85;22.48;;;;;;;-141.48;100.00;69781.59;5215614;28;20085;-83
2022/05/02 03:26:07;;;;;;;27.52;25.08;;;;;;;-141.48;100.00;69781.59;5216039;28;20037;-82
2022/05/02 03:28:37;;;;;;;23.95;22.05;;;;;;;-141.48;100.00;69781.59;5213714;28;20028;-79
2022/05/02 03:31:08;;;;;;;23.88;21.67;;;;;;;-141.48;100.00;69781.59;5215629;28;20021;-81
2022/05/02 03:33:38;;;;;;;24.23;22.38;;;;;;;-141.48;100.00;69781.59;5213212;28;20032;-80
2022/05/02 03:36:08;;;;;;;28.33;26.13;;;;;;;-141.48;100.00;69781.59;5215341;28;20032;-82
2022/05/02 03:38:39;;;;;;;27.25;24.98;;;;;;;-141.48;100.00;69781.59;5225662;28;20034;-80
2022/05/02 03:41:09;;;;;;;27.25;25.00;;;;;;;-141.48;100.00;69781.59;5226870;28;20040;-81
2022/05/02 03:43:40;;;;;;;26.25;24.17;;;;;;;-141.48;100.00;69781.59;5242339;28;20036;-81
2022/05/02 03:46:11;;;;;;;29.73;27.23;;;;;;;-141.48;100.00;69781.59;5223621;28;20028;-81
2022/05/02 03:48:41;;;;;;;26.55;24.27;;;;;;;-141.48;100.00;69781.59;5215424;28;20025;-82
2022/05/02 03:51:12;;;;;;;27.85;25.52;;;;;;;-141.48;100.00;69781.59;5215417;28;20549;-82
2022/05/02 03:53:42;;;;;;;25.67;23.45;;;;;;;-141.48;100.00;69781.59;5213731;28;20025;-82
2022/05/02 03:56:13;;;;;;;25.92;23.77;;;;;;;-141.48;100.00;69781.59;5215497;28;20044;-82
2022/05/02 03:58:43;;;;;;;25.35;23.27;;;;;;;-141.48;100.00;69781.59;5214811;28;20495;-80
2022/05/02 04:01:13;;;;;;;26.42;23.90;;;;;;;-141.48;100.00;69781.59;5215379;28;20061;-81
2022/05/02 04:03:44;;;;;;;24.65;22.52;;;;;;;-141.48;100.00;69781.59;5215012;28;20040;-82
2022/05/02 04:06:15;;;;;;;28.08;25.67;;;;;;;-141.48;100.00;69781.59;5215440;28;20249;-82
2022/05/02 04:08:46;;;;;;;27.50;25.27;;;;;;;-141.48;100.00;69781.59;5215682;28;20045;-81
2022/05/02 04:11:16;;;;;;;24.33;22.33;;;;;;;-141.48;100.00;69781.59;5232407;28;20055;-82
2022/05/02 04:13:46;;;;;;;25.33;22.85;;;;;;;-141.48;100.00;69781.59;5232398;28;20404;-81
2022/05/02 04:16:17;;;;;;;29.75;26.83;;;;;;;-141.48;100.00;69781.59;5217016;28;20017;-82
2022/05/02 04:18:48;;;;;;;25.38;23.05;;;;;;;-141.48;100.00;69781.59;5215936;28;20056;-82
2022/05/02 04:21:18;;;;;;;28.40;25.52;;;;;;;-141.48;100.00;69781.59;5231792;28;20021;-78
2022/05/02 04:23:49;;;;;;;28.98;26.52;;;;;;;-141.48;100.00;69781.59;5231142;28;20029;-81
2022/05/02 04:26:19;;;;;;;28.80;26.42;;;;;;;-141.48;100.00;69781.59;5229697;28;20018;-83
2022/05/02 04:28:49;;;;;;;25.13;23.05;;;;;;;-141.48;100.00;69781.59;5215006;28;20048;-83
2022/05/02 04:31:20;;;;;;;27.88;24.85;;;;;;;-141.48;100.00;69781.59;5214110;28;20108;-84
2022/05/02 04:33:50;;;;;;;31.73;28.98;;;;;;;-141.48;100.00;69781.59;5216107;28;20487;-81
2022/05/02 04:36:21;;;;;;;28.05;25.48;;;;;;;-141.48;100.00;69781.59;5221260;28;20021;-80
2022/05/02 04:38:51;;;;;;;26.55;24.05;;;;;;;-141.48;100.00;69781.59;5223871;28;20029;-78
2022/05/02 04:41:21;;;;;;;29.50;27.00;;;;;;;-141.48;100.00;69781.59;5239711;28;20022;-80
2022/05/02 04:43:53;;;;;;;28.92;25.83;;;;;;;-141.48;100.00;69781.59;5215373;28;20059;-82
2022/05/02 04:46:24;;;;;;;25.55;23.50;;;;;;;-141.48;100.00;69781.59;5225016;28;20022;-82
2022/05/02 04:48:54;;;;;;;29.67;27.08;;;;;;;-141.48;100.00;69781.59;5222355;28;20113;-83
2022/05/02 04:51:25;;;;;;;27.10;24.48;;;;;;;-141.48;100.00;69781.59;5220538;28;20084;-81
2022/05/02 04:53:55;;;;;;;26.60;24.25;;;;;;;-141.48;100.00;69781.59;5219300;28;20495;-81
2022/05/02 04:56:25;;;;;;;30.77;28.05;;;;;;;-141.48;100.00;69781.59;5221694;28;20057;-81
2022/05/02 04:58:56;;;;;;;28.80;26.15;;;;;;;-141.48;100.00;69781.59;5235889;28;20029;-82
2022/05/02 05:01:26;;;;;;;28.73;26.05;;;;;;;-141.48;100.00;69781.59;5220529;28;20025;-82
2022/05/02 05:03:56;;;;;;;30.25;27.27;;;;;;;-141.48;100.00;69781.59;5234922;28;20022;-80
2022/05/02 05:06:27;;;;;;;29.23;26.77;;;;;;;-141.48;100.00;69781.59;5219972;28;20024;-81
2022/05/02 05:08:57;;;;;;;29.63;27.27;;;;;;;-141.48;100.00;69781.59;5221288;28;20449;-81
2022/05/02 05:11:45;;;;;;;30.58;27.92;;;;;;;-141.48;100.00;69781.59;5222280;28;20048;-83
2022/05/02 05:17:52;;;;;;;28.70;26.17;;;;;;;-141.48;100.00;69781.59;5223795;28;20072;-80
2022/05/02 05:20:51;;;;;;;28.52;26.02;;;;;;;-141.48;100.00;69781.59;5221820;28;20353;-82
2022/05/02 05:23:43;;;;;;;28.55;25.55;;;;;;;-141.48;100.00;69781.59;5220493;28;20022;-81
2022/05/02 05:26:30;;;;;;;30.00;27.63;;;;;;;-141.48;100.00;69781.59;5219859;28;20379;-81
2022/05/02 05:29:03;;;;;;;31.05;27.83;;;;;;;-141.48;100.00;69781.59;5235416;28;20036;-81
2022/05/02 05:31:40;;;;;;;31.58;28.38;;;;;;;-141.48;100.00;69781.59;5236371;28;20203;-80
2022/05/02 05:34:58;;;;;;;26.92;24.63;;;;;;;-141.48;100.00;69781.59;5220397;28;20025;-82
2022/05/02 05:37:51;;;;;;;31.25;28.40;;;;;;;-141.48;100.00;69781.59;5207681;28;20042;-82
2022/05/02 05:40:37;;;;;;;31.75;29.10;;;;;;;-141.48;100.00;69781.59;5221278;28;20032;-82
2022/05/02 05:43:32;;;;;;;31.60;28.60;;;;;;;-141.48;100.00;69781.59;5220633;28;20093;-83
2022/05/02 05:46:17;;;;;;;31.90;29.10;;;;;;;-141.48;100.00;69781.59;5226800;28;20559;-82
2022/05/02 05:48:50;;;;;;;31.92;28.88;;;;;;;-141.48;100.00;69781.59;5214396;28;20032;-83
2022/05/02 05:51:38;;;;;;;32.40;29.45;;;;;;;-141.48;100.00;69781.59;5230525;28;20021;-80
2022/05/02 05:54:17;;;;;;;30.80;28.25;;;;;;;-141.48;100.00;69781.59;5214981;28;20025;-83
2022/05/02 05:57:09;;;;;;;33.42;30.60;;;;;;;-141.48;100.00;69781.59;5214825;28;20053;-82
2022/05/02 05:59:54;;;;;;;33.17;29.80;;;;;;;-141.48;100.00;69781.59;5215324;28;20081;-81
2022/05/02 06:02:36;;;;;;;28.88;26.42;;;;;;;-141.48;100.00;69781.59;5231020;28;20033;-83
2022/05/02 06:05:08;;;;;;;28.63;26.40;;;;;;;-141.48;100.00;69781.59;5216252;28;20020;-82
2022/05/02 06:07:39;;;;;;;27.88;25.17;;;;;;;-141.48;100.00;69781.59;5216494;28;20017;-83
2022/05/02 06:10:10;;;;;;;28.73;26.40;;;;;;;-141.48;100.00;69781.59;5221345;28;20017;-83
2022/05/02 06:12:42;;;;;;;30.50;27.35;;;;;;;-141.48;100.00;69781.59;5221692;28;20033;-81
2022/05/02 06:21:02;;;;;;;24.67;22.73;;;;;;;-141.48;100.00;69781.59;5212553;28;20041;-82
2022/05/02 06:23:39;;;;;;;26.52;24.13;;;;;;;-141.48;100.00;69781.59;5211699;28;20325;-80
2022/05/02 06:26:09;;;;;;;26.75;24.42;;;;;;;-141.48;100.00;69781.59;5212817;28;20018;-81
2022/05/02 06:28:41;;;;;;;25.52;23.25;;;;;;;-141.48;100.00;69781.59;5211963;28;20033;-81
2022/05/02 06:31:18;;;;;;;26.48;24.15;;;;;;;-141.48;100.00;69781.59;5209923;28;20059;-83
2022/05/02 06:33:50;;;;;;;25.13;23.02;;;;;;;-141.48;100.00;69781.59;5212095;28;20108;-83
2022/05/02 06:36:45;;;;;;;27.83;25.17;;;;;;;-141.48;100.00;69781.59;5227980;28;20032;-81
2022/05/02 06:39:22;;;;;;;27.10;24.83;;;;;;;-141.48;100.00;69781.59;5210247;28;20483;-81
2022/05/02 06:41:58;;;;;;;27.10;24.30;;;;;;;-141.48;100.00;69781.59;5227778;28;20025;-82
2022/05/02 06:44:47;;;;;;;24.08;21.90;;;;;;;-141.48;100.00;69781.59;5227667;28;20032;-82
2022/05/02 06:47:23;;;;;;;24.70;22.75;;;;;;;-141.48;100.00;69781.59;5211743;28;20029;-83
2022/05/02 06:49:57;;;;;;;24.60;22.55;;;;;;;-141.48;100.00;69781.59;5212120;28;20053;-83
2022/05/02 06:52:52;;;;;;;24.52;21.65;;;;;;;-141.48;100.00;69781.59;5211447;28;20017;-81
2022/05/02 06:55:58;;;;;;;21.50;19.60;;;;;;;-141.48;100.00;69781.59;5189432;28;20046;-81
2022/05/02 06:58:37;;;;;;;22.15;20.35;;;;;;;-141.48;100.00;69781.59;5159113;28;20213;-81
2022/05/02 07:01:07;;;;;;;22.87;20.80;;;;;;;-141.48;100.00;69781.59;5211191;28;20025;-82
2022/05/02 07:03:52;;;;;;;26.88;22.13;;;;;;;-141.48;100.00;69781.59;5226292;28;20029;-82
2022/05/02 07:06:41;;;;;;;22.77;20.73;;;;;;;-141.48;100.00;69781.59;5225677;28;20507;-82
2022/05/02 07:09:39;;;;;;;20.50;18.93;;;;;;;-141.48;100.00;69781.59;5210717;28;20026;-81
2022/05/02 07:12:26;;;;;;;20.65;19.10;;;;;;;-141.48;100.00;69781.59;5210562;28;20029;-81
2022/05/02 07:15:22;;;;;;;19.35;17.52;;;;;;;-141.48;100.00;69781.59;5226201;28;20483;-83
2022/05/02 07:18:05;;;;;;;18.02;16.15;;;;;;;-141.48;100.00;69781.59;5211254;28;20103;-82
2022/05/02 07:21:07;;;;;;;18.20;16.52;;;;;;;-141.48;100.00;69781.59;5213410;28;20089;-84
2022/05/02 07:24:03;;;;;;;20.85;18.27;;;;;;;-141.48;100.00;69781.59;5215059;28;20022;-84
2022/05/02 07:26:36;;;;;;;17.75;15.98;;;;;;;-141.48;100.00;69781.59;5233395;28;20089;-82
2022/05/02 07:29:09;;;;;;;19.00;17.23;;;;;;;-141.48;100.00;69781.59;5224890;28;20037;-81
2022/05/02 07:31:40;;;;;;;17.50;15.25;;;;;;;-141.48;100.00;69781.59;5224208;28;20025;-83
2022/05/02 07:34:15;;;;;;;15.38;13.93;;;;;;;-141.48;100.00;69781.59;5224826;28;20025;-83
2022/05/02 07:36:51;;;;;;;17.60;15.52;;;;;;;-141.48;100.00;69781.59;5217751;28;20056;-81
2022/05/02 07:39:22;;;;;;;16.40;15.05;;;;;;;-141.48;100.00;69781.59;5216579;28;20017;-81
2022/05/02 07:41:54;;;;;;;15.98;14.38;;;;;;;-141.48;100.00;69781.59;5220667;28;20026;-83
2022/05/02 07:44:30;;;;;;;14.63;13.20;;;;;;;-141.48;100.00;69781.59;5234042;28;20107;-82
2022/05/02 07:47:03;;;;;;;13.60;12.05;;;;;;;-141.48;100.00;69781.59;5219553;28;20079;-82
2022/05/02 07:49:34;;;;;;;15.35;13.95;;;;;;;-141.48;100.00;69781.59;5235754;28;20025;-79
2022/05/02 07:52:08;;;;;;;12.10;11.07;;;;;;;-141.48;100.00;69781.59;5215029;28;20029;-84
2022/05/02 07:54:45;;;;;;;13.85;12.32;;;;;;;-141.48;100.00;69781.59;5212686;28;20041;-82
2022/05/02 07:57:16;;;;;;;13.88;12.38;;;;;;;-141.48;100.00;69781.59;5215231;28;20029;-81
2022/05/02 07:59:55;;;;;;;18.58;12.15;;;;;;;-141.48;100.00;69781.59;5211736;28;20495;-82
2022/05/02 08:02:26;;;;;;;13.50;12.13;;;;;;;-141.48;100.00;69781.59;5227411;28;20158;-84
2022/05/02 08:04:57;;;;;;;12.98;11.85;;;;;;;-141.48;100.00;69781.59;5209970;28;20021;-83
2022/05/02 08:07:32;;;;;;;13.45;12.05;;;;;;;-141.48;100.00;69781.59;5208565;28;20025;-83
2022/05/02 08:10:18;;;;;;;12.32;11.23;;;;;;;-141.48;100.00;69781.59;5224265;28;20259;-85
2022/05/02 08:13:07;;;;;;;13.43;12.27;;;;;;;-141.48;100.00;69781.59;5223745;28;20034;-84
2022/05/02 08:15:49;;;;;;;14.25;12.75;;;;;;;-141.48;100.00;69781.59;5208226;28;20028;-89
2022/05/02 08:18:38;;;;;;;12.43;11.23;;;;;;;-141.48;100.00;69781.59;5211759;28;20033;-81
2022/05/02 08:21:18;;;;;;;9.88;9.02;;;;;;;-141.48;100.00;69781.59;5216765;28;20041;-83
2022/05/02 08:27:59;;;;;;;12.63;11.45;;;;;;;-141.48;100.00;69781.59;5199416;28;20495;-83
2022/05/02 08:30:41;;;;;;;10.57;9.77;;;;;;;-141.48;100.00;69781.59;5198905;28;20037;-83
2022/05/02 08:33:21;;;;;;;8.82;8.18;;;;;;;-141.48;100.00;69781.59;5213893;28;20033;-83
2022/05/02 08:36:00;;;;;;;;;;;;;;;-141.48;100.00;69781.59;5211959;28;20021;-83
2022/05/02 08:38:55;;;;;;;12.27;11.15;;;;;;;-141.48;100.00;69781.59;5197185;28;19937;-85
2022/05/02 08:41:28;;;;;;;15.30;12.57;;;;;;;-141.48;100.00;69781.59;5197209;28;20034;-84
2022/05/02 08:44:17;;;;;;;11.05;9.90;;;;;;;-141.48;100.00;69781.59;5215050;28;20056;-81
2022/05/02 08:47:18;;;;;;;10.20;9.35;;;;;;;-141.48;100.00;69781.59;5224807;22;20048;-59
2022/05/02 08:50:20;;;;;;;14.60;13.23;;;;;;;-141.48;100.00;69781.59;5197277;28;20024;-62
2022/05/02 08:53:19;;;;;;;10.32;9.40;;;;;;;-141.48;100.00;69781.59;5203110;28;20293;-61
2022/05/02 08:56:09;;;;;;;9.65;8.95;;;;;;;-141.48;100.00;69781.59;5183064;28;20120;-61
2022/05/02 08:59:04;;;;;;;10.32;9.55;;;;;;;-141.48;100.00;69781.59;5199829;28;20512;-61
2022/05/02 09:01:56;;;;;;;10.73;9.82;;;;;;;-141.48;100.00;69781.59;5184230;28;20521;-59
2022/05/02 09:05:18;;;;;;;10.07;9.02;;;;;;;-141.48;100.00;69781.59;5182690;28;20033;-60
2022/05/02 09:08:08;;;;;;;10.02;9.23;;;;;;;-141.48;100.00;69781.59;5182811;28;20024;-60
2022/05/02 09:11:34;;;;;;;9.30;8.65;;;;;;;-141.48;100.00;69781.59;5182594;28;20040;-61
2022/05/02 09:14:43;;;;;;;11.65;10.70;;;;;;;-141.48;100.00;69781.59;5140872;28;20101;-59
2022/05/02 09:17:16;;;;;;;9.27;8.57;;;;;;;-141.48;100.00;69781.59;5184339;28;20414;-61
2022/05/02 09:20:08;;;;;;;12.02;10.75;;;;;;;-141.48;100.00;69781.59;5182742;28;20026;-62
2022/05/02 09:22:56;;;;;;;10.25;9.30;;;;;;;-141.48;100.00;69781.59;5182880;28;20501;-60
2022/05/02 09:25:45;;;;;;;11.18;10.25;;;;;;;-141.48;100.00;69781.59;5182371;28;20076;-62
2022/05/02 09:28:25;;;;;;;9.30;8.40;;;;;;;-141.48;100.00;69781.59;5183538;28;20100;-63
2022/05/02 09:30:55;;;;;;;10.73;8.95;;;;;;;-141.48;100.00;69781.59;5184009;28;20124;-61
2022/05/02 09:33:29;;;;;;;7.53;6.93;;;;;;;-141.48;100.00;69781.59;5185695;28;20077;-65
2022/05/02 09:36:26;;;;;;;11.27;10.40;;;;;;;-141.48;100.00;69781.59;5186353;28;20025;-62
2022/05/02 09:39:24;;;;;;;11.23;9.70;;;;;;;-141.48;100.00;69781.59;5202813;28;20030;-61
2022/05/02 09:42:33;;;;;;;26.15;10.00;;;;;;;-141.48;100.00;69781.59;5184764;28;20045;-59
2022/05/02 09:51:31;;;;;;;8.45;7.75;;;;;;;-141.48;100.00;69781.59;5187350;28;20041;-59
2022/05/02 09:54:15;;;;;;;10.00;9.10;;;;;;;-141.48;100.00;69781.59;5185629;28;20029;-59
2022/05/02 09:56:47;;;;;;;11.95;9.75;;;;;;;-141.48;100.00;69781.59;5202708;28;20036;-61
2022/05/02 09:59:30;;;;;;;10.50;9.50;;;;;;;-141.48;100.00;69781.59;5185541;28;20036;-60
2022/05/02 10:02:09;;;;;;;8.50;7.80;;;;;;;-141.48;100.00;69781.59;5185547;28;20026;-56
2022/05/02 10:04:59;;;;;;;7.85;7.18;;;;;;;-141.48;100.00;69781.59;5201962;28;20018;-56
2022/05/02 10:07:36;;;;;;;8.73;8.00;;;;;;;-141.48;100.00;69781.59;5185866;28;20034;-59
2022/05/02 10:10:28;;;;;;;13.68;8.65;;;;;;;-141.48;100.00;69781.59;5202551;28;20446;-59
2022/05/02 10:13:05;;;;;;;9.55;8.80;;;;;;;-141.48;100.00;69781.59;5185504;28;20056;-61
2022/05/02 10:15:53;;;;;;;7.72;7.22;;;;;;;-141.48;100.00;69781.59;5185493;28;20157;-59
2022/05/02 10:18:51;;;;;;;8.05;7.32;;;;;;;-141.48;100.00;69781.59;5186805;28;20030;-63
2022/05/02 10:21:23;;;;;;;9.75;8.75;;;;;;;-141.48;100.00;69781.59;5201984;28;20033;-64
2022/05/02 10:24:23;;;;;;;7.78;6.75;;;;;;;-141.48;100.00;69781.59;5184935;28;20026;-59
2022/05/02 10:27:27;;;;;;;7.53;6.93;;;;;;;-141.48;100.00;69781.59;5186828;28;20018;-62
2022/05/02 10:30:18;;;;;;;7.15;6.75;;;;;;;-141.48;100.00;69781.59;5186302;28;20069;-59
2022/05/02 10:32:52;;;;;;;8.68;7.85;;;;;;;-141.48;100.00;69781.59;5185372;28;20616;-59
2022/05/02 10:35:27;;;;;;;9.20;8.15;;;;;;;-141.48;100.00;69781.59;5184908;28;20022;-62
2022/05/02 10:37:58;;;;;;;8.43;6.43;;;;;;;-141.48;100.00;69781.59;5185230;28;20029;-59
2022/05/02 10:40:29;;;;;;;7.65;7.05;;;;;;;-141.48;100.00;69781.59;5184834;28;20022;-63
2022/05/02 10:43:04;;;;;;;7.28;6.88;;;;;;;-141.48;100.00;69781.59;5183983;28;20037;-61
2022/05/02 10:45:37;;;;;;;8.18;6.55;;;;;;;-141.48;100.00;69781.59;5184827;28;20105;-58
2022/05/02 10:48:17;;;;;;;7.10;6.57;;;;;;;-141.48;100.00;69781.59;5201142;28;20040;-60
2022/05/02 10:51:02;;;;;;;7.47;6.93;;;;;;;-141.48;100.00;69781.59;5184684;28;20030;-63
2022/05/02 10:53:35;;;;;;;8.70;8.00;;;;;;;-141.48;100.00;69781.59;5200733;28;20493;-59
2022/05/02 10:56:24;;;;;;;8.80;8.20;;;;;;;-141.48;100.00;69781.59;5184531;28;20034;-62
2022/05/02 10:58:58;;;;;;;6.15;5.85;;;;;;;-141.48;100.00;69781.59;5185031;28;20574;-63
2022/05/02 11:01:38;;;;;;;6.85;6.43;;;;;;;-141.48;100.00;69781.59;5184552;28;20029;-64
2022/05/02 11:04:41;;;;;;;7.03;6.57;;;;;;;-141.48;100.00;69781.59;5184247;28;20334;-62
2022/05/02 11:07:37;;;;;;;9.15;7.63;;;;;;;-141.48;100.00;69781.59;5200815;28;20045;-60
2022/05/02 11:10:13;;;;;;;5.53;5.10;;;;;;;-141.48;100.00;69781.59;5184134;28;20037;-61
2022/05/02 11:12:55;;;;;;;6.78;6.05;;;;;;;-141.48;100.00;69781.59;5184550;28;20030;-59
2022/05/02 11:15:35;;;;;;;7.22;6.72;;;;;;;-141.48;100.00;69781.59;5186313;28;20026;-63
2022/05/02 11:21:40;;;;;;;6.97;6.38;;;;;;;-141.48;100.00;69781.59;5186755;28;20037;-60
2022/05/02 11:24:29;;;;;;;7.40;6.93;;;;;;;-141.48;100.00;69781.59;5184358;28;20587;-62
2022/05/02 11:27:15;;;;;;;8.95;8.07;;;;;;;-141.48;100.00;69781.59;5183991;28;20064;-63
2022/05/02 11:30:07;;;;;;;16.25;7.57;;;;;;;-141.48;100.00;69781.59;5184113;28;20120;-62
2022/05/02 11:33:05;;;;;;;9.15;7.32;;;;;;;-141.48;100.00;69781.59;5184058;28;20041;-65
2022/05/02 11:35:36;;;;;;;10.60;8.63;;;;;;;-141.48;100.00;69781.59;5183418;28;20524;-64
2022/05/02 11:38:27;;;;;;;10.80;8.32;;;;;;;-141.48;100.00;69781.59;5185045;28;20029;-64
2022/05/02 11:41:19;;;;;;;9.02;8.32;;;;;;;-141.48;100.00;69781.59;5183675;28;20406;-64
2022/05/02 11:44:04;;;;;;;7.50;6.85;;;;;;;-141.48;100.00;69781.59;5183543;28;20033;-65
2022/05/02 11:47:11;;;;;;;8.38;7.80;;;;;;;-141.48;100.00;69781.59;5183818;28;20549;-63
2022/05/02 11:49:52;;;;;;;7.45;6.95;;;;;;;-141.48;100.00;69781.59;5183362;28;20021;-62
2022/05/02 11:52:32;;;;;;;8.02;7.28;;;;;;;-141.48;100.00;69781.59;5183625;28;20025;-64
2022/05/02 11:55:04;;;;;;;6.78;6.10;;;;;;;-141.48;100.00;69781.59;5182755;28;20022;-60
2022/05/02 11:57:55;;;;;;;7.97;7.38;;;;;;;-141.48;100.00;69781.59;5183600;28;20022;-66
2022/05/02 12:00:34;;;;;;;9.93;6.50;;;;;;;-141.48;100.00;69781.59;5183242;28;20064;-66
2022/05/02 12:03:14;;;;;;;8.70;7.78;;;;;;;-141.48;100.00;69781.59;5200138;28;20030;-63
2022/05/02 12:05:55;;;;;;;8.38;7.80;;;;;;;-141.48;100.00;69781.59;5183454;28;20108;-64
2022/05/02 12:08:36;;;;;;;7.75;7.13;;;;;;;-141.48;100.00;69781.59;5183166;28;20026;-64
2022/05/02 12:11:12;;;;;;;9.95;6.88;;;;;;;-141.48;100.00;69781.59;5199786;28;20401;-64
2022/05/02 12:13:46;;;;;;;6.63;6.13;;;;;;;-141.48;100.00;69781.59;5183120;28;20549;-64
2022/05/02 12:16:20;;;;;;;5.97;5.47;;;;;;;-141.48;100.00;69781.59;5199906;28;20080;-63